Saint Bethlehem, Tennessee
Current Conditions -  °F | °C
As of 8:52 PM on Monday 20 Oct 2014 (Local Time) from KCKV Reporting Station
Clear Clear  
Wind Chill: 57°   Ceiling: Unl
Heat Index: 57°   Visibility: 10mi
Dew Point: 52°   Wind: 3mph
Humidity: 83%   Direction: 190°S
Pressure: 29.99"   Gusts: NA
Location:  36.57°N, 87.3°W
Report Text: KCKV 210152Z AUTO 19003KT 10SM CLR 14/11 A2999 RMK AO2 SLP154 T01390111
Loading
Personal Weather Stations






























Interactive Weather Map
Tropical Storm Tracking
New forecast layout! Learn more

10-Day Weather Forecast

Advertisements
Track Severe Weather on mobile